Terminal Aerodrome Forecast
Issued by NWS

Home | Current Version | Previous Version | Text Only | Print | Product List | Glossary On
Versions: 1 2 3 4 5 6 7 8 9 10 11 12 13 14 15 16
873
FTPA31 PHFO 280527
TAFHMK
TAF
PHMK 280527Z 2806/2906 05011G20KT P6SM FEW028 SCT045 BKN250
     FM281000 05008G17KT P6SM FEW028 SCT045 BKN250
     FM281900 04014G24KT P6SM FEW028 SCT045
     FM282200 04018G26KT P6SM FEW030 SCT045
     FM290500 04012G22KT P6SM FEW028 SCT045=

USA.gov is the U.S. government's official web portal to all federal, state and local government web resources and services.